createdAt,value
2022-10-02T00:00:19.567Z,7.75
2022-10-02T00:03:15.662Z,9.65
2022-10-02T00:06:09.105Z,7.78
2022-10-02T00:09:04.016Z,14.90
2022-10-02T00:11:57.945Z,9.50
2022-10-02T00:14:48.220Z,9.70
2022-10-02T00:17:40.584Z,11.25
2022-10-02T00:20:35.193Z,10.93
2022-10-02T00:23:29.289Z,12.90
2022-10-02T00:26:24.520Z,10.40
2022-10-02T00:29:29.628Z,8.20
2022-10-02T00:32:26.050Z,12.90
2022-10-02T00:35:37.040Z,12.18
2022-10-02T00:38:38.746Z,10.43
2022-10-02T00:42:14.845Z,12.02
2022-10-02T00:45:32.009Z,12.07
2022-10-02T00:48:34.628Z,9.85
2022-10-02T00:51:39.585Z,10.70
2022-10-02T00:54:55.055Z,9.73
2022-10-02T00:58:01.400Z,12.15
2022-10-02T01:01:01.066Z,13.68
2022-10-02T01:03:53.395Z,12.80
2022-10-02T01:06:41.611Z,13.23
2022-10-02T01:09:29.830Z,10.93
2022-10-02T01:12:17.778Z,11.65
2022-10-02T01:15:12.685Z,11.73
2022-10-02T01:18:03.319Z,13.00
2022-10-02T01:20:53.768Z,16.02
2022-10-02T01:23:49.220Z,12.50
2022-10-02T01:26:38.280Z,13.35
2022-10-02T01:29:26.078Z,13.15
2022-10-02T01:32:13.623Z,10.27
2022-10-02T01:35:02.727Z,11.65
2022-10-02T01:37:52.430Z,12.23
2022-10-02T01:40:41.989Z,11.70
2022-10-02T01:43:35.852Z,13.18
2022-10-02T01:46:34.459Z,10.88
2022-10-02T01:49:40.999Z,15.55
2022-10-02T01:52:48.253Z,13.93
2022-10-02T01:55:42.321Z,14.07
2022-10-02T01:58:37.503Z,12.10
2022-10-02T02:01:40.080Z,11.70
2022-10-02T02:04:32.401Z,13.25
2022-10-02T02:07:28.455Z,11.60
2022-10-02T02:10:24.930Z,12.95
2022-10-02T02:13:17.493Z,15.57
2022-10-02T02:16:13.641Z,12.73
2022-10-02T02:19:05.847Z,13.48
2022-10-02T02:22:01.483Z,14.77
2022-10-02T02:24:53.719Z,16.10
2022-10-02T02:27:45.804Z,13.60
2022-10-02T02:30:35.237Z,15.35
2022-10-02T02:33:28.990Z,17.65
2022-10-02T02:36:21.735Z,14.13
2022-10-02T02:39:13.291Z,13.70
2022-10-02T02:42:04.653Z,15.23
2022-10-02T02:44:56.738Z,16.58
2022-10-02T02:47:50.088Z,15.82
2022-10-02T02:50:44.006Z,16.13
2022-10-02T02:53:38.720Z,16.48
2022-10-02T02:56:28.997Z,18.02
2022-10-02T02:59:16.822Z,17.45
2022-10-02T03:02:04.475Z,19.58
2022-10-02T03:04:51.918Z,18.13
2022-10-02T03:07:41.521Z,17.58
2022-10-02T03:10:40.358Z,19.95
2022-10-02T03:13:42.888Z,17.50
2022-10-02T03:16:42.792Z,17.15
2022-10-02T03:19:41.797Z,14.33
2022-10-02T03:22:37.070Z,16.67
2022-10-02T03:25:32.111Z,21.25
2022-10-02T03:28:50.522Z,12.70
2022-10-02T03:31:35.333Z,14.32
2022-10-02T03:34:23.681Z,12.90
2022-10-02T03:37:10.869Z,19.02
2022-10-02T03:40:01.343Z,17.45
2022-10-02T03:42:51.837Z,19.17
2022-10-02T03:45:51.090Z,19.02
2022-10-02T03:48:39.100Z,15.47
2022-10-02T03:51:26.374Z,21.70
2022-10-02T03:54:18.079Z,19.48
2022-10-02T03:57:07.742Z,20.15
2022-10-02T04:00:02.721Z,19.58
2022-10-02T04:02:59.844Z,24.47
2022-10-02T04:05:52.960Z,22.88
2022-10-02T04:08:45.198Z,17.20
2022-10-02T04:11:37.104Z,15.38
2022-10-02T04:14:30.073Z,19.52
2022-10-02T04:17:23.413Z,20.60
2022-10-02T04:20:18.245Z,15.88
2022-10-02T04:23:16.840Z,15.18
2022-10-02T04:26:11.881Z,16.00
2022-10-02T04:29:03.500Z,17.73
2022-10-02T04:31:55.199Z,15.00
2022-10-02T04:34:44.234Z,14.90
2022-10-02T04:37:46.962Z,15.85
2022-10-02T04:40:52.622Z,13.68
2022-10-02T04:43:52.634Z,15.88
2022-10-02T04:46:57.204Z,15.03
2022-10-02T04:49:59.761Z,13.60
2022-10-02T04:53:03.753Z,13.32
2022-10-02T04:56:07.309Z,15.07
2022-10-02T04:59:08.717Z,12.25
2022-10-02T05:02:03.801Z,15.03
2022-10-02T05:05:19.246Z,14.90
2022-10-02T05:08:26.013Z,14.88
2022-10-02T05:11:32.051Z,9.60
2022-10-02T05:14:38.402Z,13.35
2022-10-02T05:17:43.176Z,13.33
2022-10-02T05:20:46.450Z,14.43
2022-10-02T05:23:47.177Z,15.68
2022-10-02T05:26:50.198Z,12.63
2022-10-02T05:30:03.329Z,15.55
2022-10-02T05:33:13.980Z,12.47
2022-10-02T05:36:22.586Z,9.95
2022-10-02T05:39:15.307Z,11.30
2022-10-02T05:42:13.673Z,12.50
2022-10-02T05:45:05.247Z,14.63
2022-10-02T05:47:56.678Z,16.30
2022-10-02T05:50:50.503Z,17.75
2022-10-02T05:53:44.996Z,16.90
2022-10-02T05:56:37.430Z,16.13
2022-10-02T05:59:32.759Z,19.25
2022-10-02T06:04:36.007Z,17.27
2022-10-02T06:07:25.434Z,19.00
2022-10-02T06:10:17.980Z,19.23
2022-10-02T06:13:13.900Z,18.48
2022-10-02T06:16:10.171Z,17.17
2022-10-02T06:19:04.148Z,21.13
2022-10-02T06:21:59.018Z,21.80
2022-10-02T06:24:51.971Z,18.67
2022-10-02T06:27:44.591Z,16.63
2022-10-02T06:30:36.484Z,18.00
2022-10-02T06:33:25.463Z,17.80
2022-10-02T06:36:38.011Z,19.85
2022-10-02T06:39:43.320Z,18.92
2022-10-02T06:42:43.300Z,15.63
2022-10-02T06:45:40.123Z,15.70
2022-10-02T06:48:37.527Z,20.48
2022-10-02T06:51:36.248Z,17.63
2022-10-02T06:54:37.469Z,17.17
2022-10-02T06:57:39.724Z,18.98
2022-10-02T07:00:27.141Z,18.00
2022-10-02T07:03:42.258Z,16.48
2022-10-02T07:06:42.837Z,17.23
2022-10-02T07:10:05.452Z,18.33
2022-10-02T07:13:09.472Z,17.42
2022-10-02T07:16:25.309Z,13.03
2022-10-02T07:19:35.328Z,13.88
2022-10-02T07:22:44.672Z,18.00
2022-10-02T07:25:49.857Z,22.08
2022-10-02T07:28:43.561Z,12.85
2022-10-02T07:31:46.834Z,12.40
2022-10-02T07:34:42.579Z,15.45
2022-10-02T07:37:43.030Z,18.27
2022-10-02T07:40:44.640Z,15.73
2022-10-02T07:43:50.033Z,12.70
2022-10-02T07:46:45.491Z,17.50
2022-10-02T07:49:48.029Z,16.20
2022-10-02T07:52:43.586Z,11.50
2022-10-02T07:55:31.440Z,12.02
2022-10-02T07:58:24.523Z,16.40
2022-10-02T08:01:17.697Z,14.23
2022-10-02T08:04:11.929Z,13.35
2022-10-02T08:07:03.710Z,17.27
2022-10-02T08:09:54.725Z,10.00
2022-10-02T08:12:48.650Z,18.08
2022-10-02T08:15:39.185Z,14.07
2022-10-02T08:18:35.604Z,13.63
2022-10-02T08:21:25.622Z,12.18
2022-10-02T08:24:16.620Z,13.77
2022-10-02T08:27:11.921Z,22.85
2022-10-02T08:30:04.187Z,12.43
2022-10-02T08:32:51.399Z,18.48
2022-10-02T08:35:46.549Z,12.82
2022-10-02T08:38:42.844Z,14.48
2022-10-02T08:42:04.269Z,12.50
2022-10-02T08:45:42.264Z,19.77
2022-10-02T08:49:19.708Z,17.85
2022-10-02T08:52:30.170Z,14.50
2022-10-02T08:55:33.106Z,11.60
2022-10-02T08:58:54.705Z,10.70
2022-10-02T09:02:47.710Z,15.07
2022-10-02T09:06:03.889Z,14.80
2022-10-02T09:09:27.720Z,13.93
2022-10-02T09:12:38.040Z,12.43
2022-10-02T09:15:44.722Z,13.15
2022-10-02T09:18:50.481Z,12.50
2022-10-02T09:21:56.013Z,12.52
2022-10-02T09:25:22.088Z,8.73
2022-10-02T09:28:54.346Z,14.63
2022-10-02T09:32:13.944Z,13.70
2022-10-02T09:35:38.317Z,12.10
2022-10-02T09:39:05.954Z,12.93
2022-10-02T09:42:32.610Z,11.90
2022-10-02T09:45:45.255Z,11.75
2022-10-02T09:49:00.768Z,12.82
2022-10-02T09:52:23.355Z,15.00
2022-10-02T09:55:45.579Z,10.55
2022-10-02T09:59:17.531Z,11.00
2022-10-02T10:02:50.761Z,12.20
2022-10-02T10:06:19.742Z,12.23
2022-10-02T10:09:43.009Z,11.37
2022-10-02T10:12:51.338Z,10.27
2022-10-02T10:16:11.974Z,12.13
2022-10-02T10:19:27.625Z,9.27
2022-10-02T10:22:46.460Z,8.30
2022-10-02T10:25:53.331Z,9.40
2022-10-02T10:29:09.077Z,10.02
2022-10-02T10:32:57.027Z,14.60
2022-10-02T10:36:43.322Z,10.48
2022-10-02T10:39:56.957Z,8.68
2022-10-02T10:43:15.770Z,11.57
2022-10-02T10:46:34.630Z,8.02
2022-10-02T10:50:24.129Z,10.20
2022-10-02T10:53:37.559Z,9.52
2022-10-02T10:56:37.989Z,8.57
2022-10-02T11:00:11.262Z,8.67
2022-10-02T11:03:37.121Z,12.43
2022-10-02T11:06:56.421Z,9.93
2022-10-02T11:10:31.825Z,8.52
2022-10-02T11:13:44.042Z,8.55
2022-10-02T11:17:05.549Z,9.00
2022-10-02T11:20:11.659Z,11.05
2022-10-02T11:23:19.575Z,12.63
2022-10-02T11:26:35.616Z,8.35
2022-10-02T11:30:00.031Z,9.05
2022-10-02T11:33:11.723Z,9.60
2022-10-02T11:36:41.871Z,10.55
2022-10-02T11:39:52.767Z,9.43
2022-10-02T11:43:03.380Z,9.30
2022-10-02T11:46:25.043Z,9.00
2022-10-02T11:49:45.527Z,6.50
2022-10-02T11:52:53.550Z,8.05
2022-10-02T11:55:58.030Z,8.80
2022-10-02T11:58:55.068Z,6.15
2022-10-02T12:01:47.417Z,9.32
2022-10-02T12:04:47.381Z,6.57
2022-10-02T12:07:45.740Z,7.07
2022-10-02T12:10:42.187Z,7.65
2022-10-02T12:13:52.064Z,7.10
2022-10-02T12:16:56.040Z,7.28
2022-10-02T12:20:24.909Z,8.20
2022-10-02T12:23:44.851Z,6.35
2022-10-02T12:27:00.392Z,7.03
2022-10-02T12:30:02.364Z,7.38
2022-10-02T12:33:16.214Z,8.23
2022-10-02T12:36:45.042Z,6.87
2022-10-02T12:39:43.677Z,7.03
2022-10-02T12:43:00.344Z,9.57
2022-10-02T12:46:14.519Z,8.13
2022-10-02T12:49:27.916Z,6.28
2022-10-02T12:52:54.349Z,6.20
2022-10-02T12:56:08.097Z,6.38
2022-10-02T12:59:05.160Z,5.40
2022-10-02T13:03:01.859Z,10.40
2022-10-02T13:06:29.708Z,7.65
2022-10-02T13:09:45.631Z,8.77
2022-10-02T13:12:54.192Z,7.32
2022-10-02T13:15:53.881Z,6.95
2022-10-02T13:18:57.081Z,7.55
2022-10-02T13:21:56.078Z,6.47
2022-10-02T13:24:56.168Z,6.87
2022-10-02T13:27:53.053Z,5.72
2022-10-02T13:30:47.682Z,6.75
2022-10-02T13:34:00.769Z,6.63
2022-10-02T13:37:07.126Z,5.45
2022-10-02T13:40:13.497Z,9.27
2022-10-02T13:43:37.702Z,5.50
2022-10-02T13:46:39.986Z,6.10
2022-10-02T13:49:41.500Z,6.15
2022-10-02T13:52:37.736Z,6.32
2022-10-02T13:55:29.243Z,7.50
2022-10-02T13:58:37.084Z,7.95
2022-10-02T14:01:36.883Z,6.72
2022-10-02T14:04:38.210Z,5.50
2022-10-02T14:07:58.991Z,8.70
2022-10-02T14:11:01.616Z,8.73
2022-10-02T14:14:09.801Z,6.28
2022-10-02T14:17:10.356Z,5.35
2022-10-02T14:20:18.696Z,10.18
2022-10-02T14:23:27.118Z,7.65
2022-10-02T14:26:21.211Z,6.97
2022-10-02T14:29:24.234Z,5.88
2022-10-02T14:32:50.227Z,7.75
2022-10-02T14:35:50.306Z,5.25
2022-10-02T14:39:01.577Z,5.63
2022-10-02T14:42:15.098Z,6.30
2022-10-02T14:45:31.936Z,6.72
2022-10-02T14:48:30.944Z,7.82
2022-10-02T14:51:36.857Z,7.82
2022-10-02T14:54:36.020Z,9.70
2022-10-02T14:57:43.567Z,7.20
2022-10-02T15:00:41.141Z,6.90
2022-10-02T15:03:55.745Z,8.52
2022-10-02T15:07:00.055Z,7.22
2022-10-02T15:10:03.623Z,8.63
2022-10-02T15:13:02.315Z,7.93
2022-10-02T15:16:14.927Z,9.50
2022-10-02T15:19:09.926Z,8.25
2022-10-02T15:22:02.349Z,6.88
2022-10-02T15:24:55.789Z,7.35
2022-10-02T15:27:46.905Z,6.27
2022-10-02T15:30:39.576Z,7.22
2022-10-02T15:33:36.968Z,10.43
2022-10-02T15:36:39.771Z,6.00
2022-10-02T15:39:46.392Z,7.45
2022-10-02T15:42:50.096Z,5.73
2022-10-02T15:45:59.814Z,7.10
2022-10-02T15:49:02.248Z,6.80
2022-10-02T15:52:04.065Z,5.65
2022-10-02T15:55:02.076Z,9.68
2022-10-02T15:58:05.376Z,8.70
2022-10-02T16:01:17.911Z,7.28
2022-10-02T16:04:15.208Z,9.35
2022-10-02T16:07:36.102Z,8.32
2022-10-02T16:10:26.606Z,6.35
2022-10-02T16:13:34.499Z,7.47
2022-10-02T16:16:50.592Z,7.03
2022-10-02T16:19:51.598Z,10.75
2022-10-02T16:22:57.288Z,8.35
2022-10-02T16:26:01.710Z,7.97
2022-10-02T16:28:56.090Z,10.33
2022-10-02T16:32:03.218Z,6.90
2022-10-02T16:35:13.978Z,7.18
2022-10-02T16:38:06.395Z,7.07
2022-10-02T16:40:58.926Z,7.40
2022-10-02T16:44:00.718Z,7.40
2022-10-02T16:46:52.878Z,11.98
2022-10-02T16:49:51.247Z,6.63
2022-10-02T16:52:44.804Z,9.48
2022-10-02T16:55:37.182Z,4.85
2022-10-02T16:58:28.401Z,8.70
2022-10-02T17:01:25.698Z,6.72
2022-10-02T17:04:33.089Z,8.80
2022-10-02T17:07:30.179Z,8.10
2022-10-02T17:10:26.452Z,8.40
2022-10-02T17:13:29.280Z,8.90
2022-10-02T17:16:23.737Z,6.65
2022-10-02T17:19:23.620Z,11.23
2022-10-02T17:22:26.885Z,7.70
2022-10-02T17:25:22.587Z,8.68
2022-10-02T17:28:22.959Z,6.83
2022-10-02T17:31:36.182Z,5.63
2022-10-02T17:34:25.527Z,5.15
2022-10-02T17:37:57.442Z,6.72
2022-10-02T17:40:59.144Z,6.47
2022-10-02T17:43:58.222Z,9.37
2022-10-02T17:47:19.288Z,8.30
2022-10-02T17:50:27.991Z,7.78
2022-10-02T17:53:50.829Z,5.85
2022-10-02T17:57:13.472Z,5.63
2022-10-02T18:00:17.847Z,12.40
2022-10-02T18:03:27.568Z,7.85
2022-10-02T18:06:22.283Z,6.68
2022-10-02T18:09:25.649Z,6.57
2022-10-02T18:12:28.253Z,7.13
2022-10-02T18:15:40.297Z,7.83
2022-10-02T18:18:35.299Z,6.95
2022-10-02T18:21:34.476Z,12.10
2022-10-02T18:24:35.943Z,8.82
2022-10-02T18:27:52.232Z,7.40
2022-10-02T18:30:50.270Z,10.30
2022-10-02T18:33:56.761Z,6.88
2022-10-02T18:37:01.935Z,7.65
2022-10-02T18:40:06.869Z,10.40
2022-10-02T18:43:14.856Z,8.27
2022-10-02T18:46:12.924Z,9.53
2022-10-02T18:49:16.411Z,9.93
2022-10-02T18:52:38.844Z,7.72
2022-10-02T18:55:50.157Z,6.70
2022-10-02T18:58:53.703Z,6.90
2022-10-02T19:01:51.524Z,8.07
2022-10-02T19:04:53.925Z,8.43
2022-10-02T19:07:45.150Z,8.07
2022-10-02T19:10:41.059Z,8.13
2022-10-02T19:13:30.016Z,8.02
2022-10-02T19:16:26.071Z,8.70
2022-10-02T19:19:20.291Z,6.47
2022-10-02T19:22:17.717Z,7.85
2022-10-02T19:25:08.554Z,5.85
2022-10-02T19:27:56.477Z,5.45
2022-10-02T19:30:50.095Z,5.63
2022-10-02T19:33:46.937Z,10.52
2022-10-02T19:36:40.073Z,7.68
2022-10-02T19:39:30.730Z,7.38
2022-10-02T19:42:24.744Z,6.55
2022-10-02T19:45:25.460Z,8.23
2022-10-02T19:48:18.767Z,5.68
2022-10-02T19:51:16.999Z,8.90
2022-10-02T19:54:06.375Z,6.82
2022-10-02T19:56:58.096Z,6.88
2022-10-02T19:59:49.876Z,8.07
2022-10-02T20:02:41.840Z,7.78
2022-10-02T20:05:32.791Z,6.22
2022-10-02T20:08:28.161Z,8.20
2022-10-02T20:11:21.578Z,6.60
2022-10-02T20:14:15.641Z,8.60
2022-10-02T20:17:10.901Z,8.98
2022-10-02T20:20:00.841Z,6.00
2022-10-02T20:22:53.650Z,9.57
2022-10-02T20:25:48.071Z,6.07
2022-10-02T20:28:44.129Z,8.93
2022-10-02T20:31:41.026Z,6.55
2022-10-02T20:34:33.411Z,8.40
2022-10-02T20:37:26.382Z,9.93
2022-10-02T20:40:19.139Z,9.23
2022-10-02T20:43:16.268Z,8.70
2022-10-02T20:46:30.793Z,7.80
2022-10-02T20:49:53.874Z,8.00
2022-10-02T20:53:19.973Z,9.93
2022-10-02T20:56:17.796Z,8.55
2022-10-02T20:59:27.047Z,10.67
2022-10-02T21:02:33.148Z,9.73
2022-10-02T21:05:55.311Z,7.78
2022-10-02T21:09:16.001Z,9.18
2022-10-02T21:12:27.012Z,7.07
2022-10-02T21:15:42.409Z,6.63
2022-10-02T21:19:03.865Z,9.43
2022-10-02T21:22:27.991Z,6.00
2022-10-02T21:25:53.846Z,7.75
2022-10-02T21:29:04.084Z,6.82
2022-10-02T21:32:20.465Z,6.30
2022-10-02T21:35:17.583Z,8.55
2022-10-02T21:38:35.596Z,7.40
2022-10-02T21:41:52.884Z,7.47
2022-10-02T21:45:26.025Z,6.00
2022-10-02T21:48:49.442Z,6.77
2022-10-02T21:52:04.657Z,6.72
2022-10-02T21:55:27.869Z,8.13
2022-10-02T21:58:56.217Z,7.82
2022-10-02T22:02:09.349Z,6.45
2022-10-02T22:05:22.941Z,7.80
2022-10-02T22:08:23.900Z,6.30
2022-10-02T22:11:18.153Z,8.73
2022-10-02T22:14:12.795Z,7.22
2022-10-02T22:17:14.684Z,8.45
2022-10-02T22:20:21.224Z,7.07
2022-10-02T22:23:22.100Z,8.13
2022-10-02T22:26:23.929Z,5.75
2022-10-02T22:29:16.660Z,7.50
2022-10-02T22:32:38.188Z,8.00
2022-10-02T22:35:37.773Z,6.37
2022-10-02T22:38:33.595Z,5.40
2022-10-02T22:41:30.125Z,6.10
2022-10-02T22:44:26.329Z,7.13
2022-10-02T22:47:30.149Z,6.05
2022-10-02T22:50:28.840Z,7.30
2022-10-02T22:53:25.498Z,6.05
2022-10-02T22:56:27.527Z,5.88
2022-10-02T22:59:23.205Z,7.20
2022-10-02T23:02:20.595Z,7.38
2022-10-02T23:05:15.595Z,4.77
2022-10-02T23:08:12.682Z,8.40
2022-10-02T23:11:06.677Z,5.82
2022-10-02T23:14:01.725Z,5.53
2022-10-02T23:16:54.976Z,4.57
2022-10-02T23:19:45.798Z,6.23
2022-10-02T23:22:37.914Z,6.55
2022-10-02T23:25:34.121Z,4.78
2022-10-02T23:28:29.061Z,5.55
2022-10-02T23:31:22.962Z,6.60
2022-10-02T23:34:18.378Z,4.67
2022-10-02T23:37:13.809Z,4.50
2022-10-02T23:40:16.180Z,6.95
2022-10-02T23:43:06.284Z,6.05
2022-10-02T23:46:00.021Z,6.43
2022-10-02T23:48:49.133Z,9.93
2022-10-02T23:51:47.952Z,4.95
2022-10-02T23:54:47.631Z,5.63
2022-10-02T23:57:57.578Z,6.65
